Time;durP1;ratioP1;P1;durP2;ratioP2;P2;SDS_P1;SDS_P2;PMS_P1;PMS_P2;Temp;Humidity;BMP_temperature;BMP_pressure;BME280_temperature;BME280_humidity;BME280_pressure;Samples;Min_cycle;Max_cycle;Signal;HPM_P1;HPM_P2
2023/10/27 00:01:13;;;;;;;15.40;14.50;;;;;;;-141.22;100.00;65034.22;5031060;28;20994;-39
2023/10/27 00:03:41;;;;;;;15.83;14.93;;;;;;;-141.22;100.00;65034.22;5030864;28;20551;-39
2023/10/27 00:06:08;;;;;;;15.47;14.87;;;;;;;-141.22;100.00;65034.22;5030766;28;20471;-41
2023/10/27 00:08:36;;;;;;;15.27;14.67;;;;;;;-141.22;100.00;65034.22;5031168;28;20454;-41
2023/10/27 00:11:05;;;;;;;15.53;14.93;;;;;;;-141.22;100.00;65034.22;5031005;28;20506;-40
2023/10/27 00:13:33;;;;;;;16.53;15.70;;;;;;;-141.22;100.00;65034.22;5030535;28;20537;-40
2023/10/27 00:16:07;;;;;;;15.60;14.97;;;;;;;-141.22;100.00;65034.22;5031072;28;20464;-41
2023/10/27 00:18:35;;;;;;;16.70;15.83;;;;;;;-141.22;100.00;65034.22;5027625;28;20462;-41
2023/10/27 00:21:04;;;;;;;15.53;14.93;;;;;;;-141.22;100.00;65034.22;5030856;28;20839;-40
2023/10/27 00:23:33;;;;;;;15.23;14.63;;;;;;;-141.22;100.00;65034.22;5030354;28;20485;-42
2023/10/27 00:26:01;;;;;;;15.10;14.50;;;;;;;-141.22;100.00;65034.22;5030527;28;20781;-41
2023/10/27 00:28:29;;;;;;;16.97;15.80;;;;;;;-141.22;100.00;65034.22;5030677;28;20862;-43
2023/10/27 00:30:57;;;;;;;16.10;15.50;;;;;;;-141.22;100.00;65034.22;5030206;28;20941;-39
2023/10/27 00:33:26;;;;;;;16.17;15.33;;;;;;;-141.22;100.00;65034.22;5030567;28;20478;-39
2023/10/27 00:35:54;;;;;;;15.77;15.00;;;;;;;-141.22;100.00;65034.22;5029687;28;20923;-39
2023/10/27 00:38:22;;;;;;;15.13;14.63;;;;;;;-141.22;100.00;65034.22;5029913;28;20532;-39
2023/10/27 00:40:50;;;;;;;14.97;14.30;;;;;;;-141.22;100.00;65034.22;5030155;28;20935;-40
2023/10/27 00:43:19;;;;;;;14.23;13.63;;;;;;;-141.22;100.00;65034.22;5030235;28;20870;-41
2023/10/27 00:45:48;;;;;;;14.30;13.80;;;;;;;-141.22;100.00;65034.22;5030245;28;20428;-39
2023/10/27 00:48:16;;;;;;;14.37;13.67;;;;;;;-141.22;100.00;65034.22;4994278;28;1057527;-39
2023/10/27 00:50:45;;;;;;;14.43;13.73;;;;;;;-141.22;100.00;65034.22;5031322;28;20190;-39
2023/10/27 00:53:14;;;;;;;14.60;14.00;;;;;;;-141.22;100.00;65034.22;5026678;28;20456;-39
2023/10/27 00:55:42;;;;;;;14.70;14.00;;;;;;;-141.22;100.00;65034.22;5031167;28;20459;-41
2023/10/27 00:58:11;;;;;;;15.00;14.20;;;;;;;-141.22;100.00;65034.22;5030925;28;20451;-42
2023/10/27 01:00:39;;;;;;;15.37;14.17;;;;;;;-141.22;100.00;65034.22;5031247;28;20433;-42
2023/10/27 01:03:07;;;;;;;15.20;14.60;;;;;;;-141.22;100.00;65034.22;5030452;28;20542;-41
2023/10/27 01:05:35;;;;;;;15.67;14.87;;;;;;;-141.22;100.00;65034.22;5030904;28;20443;-44
2023/10/27 01:08:04;;;;;;;15.53;14.83;;;;;;;-141.22;100.00;65034.22;5030420;28;20444;-40
2023/10/27 01:10:32;;;;;;;15.93;15.23;;;;;;;-141.22;100.00;65034.22;5031359;28;20836;-40
2023/10/27 01:13:00;;;;;;;14.60;14.10;;;;;;;-141.22;100.00;65034.22;5030530;28;20455;-39
2023/10/27 01:15:29;;;;;;;14.33;13.90;;;;;;;-141.22;100.00;65034.22;5031044;28;20526;-39
2023/10/27 01:17:57;;;;;;;14.77;14.17;;;;;;;-141.22;100.00;65034.22;5030993;28;20534;-41
2023/10/27 01:20:25;;;;;;;14.90;14.00;;;;;;;-141.22;100.00;65034.22;5030662;28;20927;-41
2023/10/27 01:22:54;;;;;;;14.33;13.80;;;;;;;-141.22;100.00;65034.22;5030463;28;20824;-41
2023/10/27 01:25:22;;;;;;;14.60;14.07;;;;;;;-141.22;100.00;65034.22;5031091;28;20519;-40
2023/10/27 01:27:50;;;;;;;16.87;15.77;;;;;;;-141.22;100.00;65034.22;5030658;28;20973;-39
2023/10/27 01:30:18;;;;;;;15.90;14.97;;;;;;;-141.22;100.00;65034.22;5030763;28;20917;-39
2023/10/27 01:32:46;;;;;;;16.27;15.47;;;;;;;-141.22;100.00;65034.22;5030356;28;20919;-40
2023/10/27 01:35:14;;;;;;;15.87;15.10;;;;;;;-141.22;100.00;65034.22;5029794;28;20527;-39
2023/10/27 01:37:42;;;;;;;15.77;14.97;;;;;;;-141.22;100.00;65034.22;5030777;28;20997;-40
2023/10/27 01:40:13;;;;;;;15.40;14.70;;;;;;;-141.22;100.00;65034.22;5030854;28;20512;-39
2023/10/27 01:42:41;;;;;;;15.00;14.27;;;;;;;-141.22;100.00;65034.22;5033453;28;20566;-39
2023/10/27 01:45:09;;;;;;;14.93;14.23;;;;;;;-141.22;100.00;65034.22;5034587;28;20458;-40
2023/10/27 01:47:36;;;;;;;14.67;14.17;;;;;;;-141.22;100.00;65034.22;5029779;28;20487;-39
2023/10/27 01:50:05;;;;;;;15.17;14.67;;;;;;;-141.22;100.00;65034.22;5020893;28;20510;-39
2023/10/27 01:52:33;;;;;;;15.83;14.60;;;;;;;-141.22;100.00;65034.22;5021825;28;21320;-40
2023/10/27 01:55:00;;;;;;;15.23;14.70;;;;;;;-141.22;100.00;65034.22;5033260;28;20435;-39
2023/10/27 01:57:30;;;;;;;14.60;14.07;;;;;;;-141.22;100.00;65034.22;5032539;28;20468;-40
2023/10/27 01:59:57;;;;;;;15.50;14.60;;;;;;;-141.22;100.00;65034.22;5034015;28;20438;-39
2023/10/27 02:02:25;;;;;;;15.70;14.97;;;;;;;-141.22;100.00;65034.22;5034308;28;20836;-38
2023/10/27 02:04:53;;;;;;;16.20;15.60;;;;;;;-141.22;100.00;65034.22;5033587;28;20451;-38
2023/10/27 02:07:24;;;;;;;15.50;14.90;;;;;;;-141.22;100.00;65034.22;5033882;28;20884;-43
2023/10/27 02:09:52;;;;;;;15.87;15.07;;;;;;;-141.22;100.00;65034.22;5030471;28;20527;-40
2023/10/27 02:12:20;;;;;;;15.33;14.63;;;;;;;-141.22;100.00;65034.22;5023965;28;20428;-41
2023/10/27 02:14:49;;;;;;;15.53;14.77;;;;;;;-141.22;100.00;65034.22;5032561;28;20464;-40
2023/10/27 02:17:17;;;;;;;16.33;15.40;;;;;;;-141.22;100.00;65034.22;5033711;28;20502;-41
2023/10/27 02:19:45;;;;;;;15.63;15.03;;;;;;;-141.22;100.00;65034.22;5023047;28;20464;-43
2023/10/27 02:22:13;;;;;;;16.87;15.87;;;;;;;-141.22;100.00;65034.22;5028975;28;20988;-39
2023/10/27 02:24:41;;;;;;;17.30;16.40;;;;;;;-141.22;100.00;65034.22;5027745;28;20555;-42
2023/10/27 02:27:09;;;;;;;15.47;14.77;;;;;;;-141.22;100.00;65034.22;5025420;28;20560;-42
2023/10/27 02:29:37;;;;;;;15.80;15.10;;;;;;;-141.22;100.00;65034.22;5025605;28;20432;-39
2023/10/27 02:32:06;;;;;;;16.40;15.63;;;;;;;-141.22;100.00;65034.22;5024772;28;20863;-40
2023/10/27 02:34:34;;;;;;;16.67;15.60;;;;;;;-141.22;100.00;65034.22;5025399;28;20816;-38
2023/10/27 02:37:02;;;;;;;16.37;15.50;;;;;;;-141.22;100.00;65034.22;5023582;28;20476;-41
2023/10/27 02:39:30;;;;;;;15.63;14.93;;;;;;;-141.22;100.00;65034.22;5021777;28;20779;-38
2023/10/27 02:41:58;;;;;;;15.83;15.03;;;;;;;-141.22;100.00;65034.22;5027052;28;20471;-39
2023/10/27 02:44:25;;;;;;;15.00;14.40;;;;;;;-141.22;100.00;65034.22;5022652;28;20461;-39
2023/10/27 02:46:53;;;;;;;15.30;14.80;;;;;;;-141.22;100.00;65034.22;5029843;28;20472;-39
2023/10/27 02:49:22;;;;;;;15.07;14.37;;;;;;;-141.22;100.00;65034.22;5029261;28;20869;-43
2023/10/27 02:51:50;;;;;;;15.00;14.20;;;;;;;-141.22;100.00;65034.22;5029787;28;20457;-39
2023/10/27 02:54:18;;;;;;;15.00;14.37;;;;;;;-141.22;100.00;65034.22;5021232;28;21161;-42
2023/10/27 02:56:45;;;;;;;14.37;13.80;;;;;;;-141.22;100.00;65034.22;5030228;28;20808;-39
2023/10/27 02:59:13;;;;;;;15.47;14.60;;;;;;;-141.22;100.00;65034.22;5032892;28;20444;-38
2023/10/27 03:01:44;;;;;;;15.10;14.47;;;;;;;-141.22;100.00;65034.22;5033083;28;20942;-39
2023/10/27 03:04:13;;;;;;;14.60;14.10;;;;;;;-141.22;100.00;65034.22;5032351;28;20460;-39
2023/10/27 03:06:44;;;;;;;14.80;14.20;;;;;;;-141.22;100.00;65034.22;5032243;28;20424;-39
2023/10/27 03:09:11;;;;;;;15.33;14.50;;;;;;;-141.22;100.00;65034.22;5031404;28;20441;-40
2023/10/27 03:11:39;;;;;;;15.50;14.80;;;;;;;-141.22;100.00;65034.22;5028234;28;20521;-41
2023/10/27 03:14:07;;;;;;;15.40;14.70;;;;;;;-141.22;100.00;65034.22;5024131;28;20540;-44
2023/10/27 03:16:35;;;;;;;15.40;14.70;;;;;;;-141.22;100.00;65034.22;5026860;28;20797;-39
2023/10/27 03:19:02;;;;;;;14.13;13.63;;;;;;;-141.22;100.00;65034.22;5030130;28;20424;-39
2023/10/27 03:21:30;;;;;;;14.70;14.20;;;;;;;-141.22;100.00;65034.22;5030699;28;20462;-39
2023/10/27 03:23:59;;;;;;;15.77;15.00;;;;;;;-141.22;100.00;65034.22;5032183;28;20464;-39
2023/10/27 03:26:27;;;;;;;15.13;14.43;;;;;;;-141.22;100.00;65034.22;5032548;28;20429;-41
2023/10/27 03:28:55;;;;;;;15.00;14.40;;;;;;;-141.22;100.00;65034.22;5032067;28;20452;-40
2023/10/27 03:31:22;;;;;;;14.47;13.80;;;;;;;-141.22;100.00;65034.22;5032607;28;20471;-40
2023/10/27 03:33:51;;;;;;;13.60;12.90;;;;;;;-141.22;100.00;65034.22;5031892;28;20514;-39
2023/10/27 03:36:19;;;;;;;13.53;12.63;;;;;;;-141.22;100.00;65034.22;5024578;28;20535;-39
2023/10/27 03:38:47;;;;;;;14.10;13.30;;;;;;;-141.22;100.00;65034.22;5032325;28;20491;-39
2023/10/27 03:41:16;;;;;;;13.70;13.10;;;;;;;-141.22;100.00;65034.22;5032025;28;20860;-40
2023/10/27 03:43:44;;;;;;;13.63;12.93;;;;;;;-141.22;100.00;65034.22;5031691;28;20543;-40
2023/10/27 03:46:11;;;;;;;14.77;14.10;;;;;;;-141.22;100.00;65034.22;5032030;28;20556;-41
2023/10/27 03:48:40;;;;;;;15.23;14.47;;;;;;;-141.22;100.00;65034.22;5032063;28;20460;-39
2023/10/27 03:51:08;;;;;;;14.40;13.60;;;;;;;-141.22;100.00;65034.22;5031973;28;20444;-38
2023/10/27 03:53:36;;;;;;;15.23;14.20;;;;;;;-141.22;100.00;65034.22;5031716;28;20518;-39
2023/10/27 03:56:04;;;;;;;14.20;13.50;;;;;;;-141.22;100.00;65034.22;5031835;28;20429;-39
2023/10/27 03:58:33;;;;;;;15.23;14.00;;;;;;;-141.22;100.00;65034.22;5031035;28;20967;-39
2023/10/27 04:01:15;;;;;;;13.53;12.83;;;;;;;-141.22;100.00;65034.22;5030768;28;20517;-42
2023/10/27 04:03:43;;;;;;;14.20;13.50;;;;;;;-141.22;100.00;65034.22;5029734;28;20460;-39
2023/10/27 04:06:11;;;;;;;14.53;13.67;;;;;;;-141.22;100.00;65034.22;5031637;28;20436;-39
2023/10/27 04:08:38;;;;;;;14.77;13.97;;;;;;;-141.22;100.00;65034.22;5031766;28;20484;-39
2023/10/27 04:11:06;;;;;;;12.93;12.23;;;;;;;-141.22;100.00;65034.22;5031727;28;20436;-41
2023/10/27 04:13:35;;;;;;;14.33;13.57;;;;;;;-141.22;100.00;65034.22;5031428;28;20448;-39
2023/10/27 04:16:03;;;;;;;14.57;13.97;;;;;;;-141.22;100.00;65034.22;5031528;28;20467;-42
2023/10/27 04:18:31;;;;;;;14.30;13.70;;;;;;;-141.22;100.00;65034.22;5031701;28;20467;-39
2023/10/27 04:20:59;;;;;;;16.23;15.50;;;;;;;-141.22;100.00;65034.22;5029998;28;20432;-40
2023/10/27 04:23:26;;;;;;;15.70;14.80;;;;;;;-141.22;100.00;65034.22;5031187;28;20492;-40
2023/10/27 04:25:54;;;;;;;15.50;14.63;;;;;;;-141.22;100.00;65034.22;5031481;28;21017;-39
2023/10/27 04:28:22;;;;;;;14.80;14.10;;;;;;;-141.22;100.00;65034.22;5031559;28;20487;-39
2023/10/27 04:30:53;;;;;;;15.77;14.90;;;;;;;-141.22;100.00;65034.22;5027531;28;20805;-40
2023/10/27 04:33:21;;;;;;;16.03;14.83;;;;;;;-141.22;100.00;65034.22;5031000;28;20966;-41
2023/10/27 04:35:49;;;;;;;14.50;13.80;;;;;;;-141.22;100.00;65034.22;5031287;28;20436;-40
2023/10/27 04:38:18;;;;;;;14.30;13.60;;;;;;;-141.22;100.00;65034.22;5031021;28;20804;-40
2023/10/27 04:40:46;;;;;;;14.80;13.70;;;;;;;-141.22;100.00;65034.22;5026785;28;20432;-40
2023/10/27 04:43:13;;;;;;;15.00;14.30;;;;;;;-141.22;100.00;65034.22;5030800;28;20966;-40
2023/10/27 04:45:42;;;;;;;15.43;14.70;;;;;;;-141.22;100.00;65034.22;5031216;28;20490;-40
2023/10/27 04:48:10;;;;;;;14.30;13.60;;;;;;;-141.22;100.00;65034.22;5030940;28;20820;-41
2023/10/27 04:50:38;;;;;;;14.30;13.50;;;;;;;-141.22;100.00;65034.22;5031244;28;20818;-38
2023/10/27 04:53:06;;;;;;;13.23;12.47;;;;;;;-141.22;100.00;65034.22;5030903;28;20526;-38
2023/10/27 04:55:34;;;;;;;13.50;12.90;;;;;;;-141.22;100.00;65034.22;5031264;28;20468;-38
2023/10/27 04:58:02;;;;;;;13.47;12.53;;;;;;;-141.22;100.00;65034.22;5030959;28;20838;-41
2023/10/27 05:00:29;;;;;;;13.60;12.90;;;;;;;-141.22;100.00;65034.22;5031064;28;20428;-40
2023/10/27 05:02:57;;;;;;;12.97;12.03;;;;;;;-141.22;100.00;65034.22;5030501;28;21122;-39
2023/10/27 05:05:26;;;;;;;13.00;12.23;;;;;;;-141.22;100.00;65034.22;5026443;28;20428;-41
2023/10/27 05:07:55;;;;;;;12.57;11.67;;;;;;;-141.22;100.00;65034.22;5030860;28;21013;-40
2023/10/27 05:10:23;;;;;;;12.33;11.53;;;;;;;-141.22;100.00;65034.22;5027211;28;20924;-40
2023/10/27 05:12:51;;;;;;;12.10;11.60;;;;;;;-141.22;100.00;65034.22;5030914;28;20456;-40
2023/10/27 05:15:19;;;;;;;12.70;12.07;;;;;;;-141.22;100.00;65034.22;5030829;28;20463;-39
2023/10/27 05:17:47;;;;;;;12.63;12.00;;;;;;;-141.22;100.00;65034.22;5034012;28;21037;-43
2023/10/27 05:20:15;;;;;;;12.83;11.80;;;;;;;-141.22;100.00;65034.22;5034972;28;20563;-40
2023/10/27 05:22:44;;;;;;;12.20;11.40;;;;;;;-141.22;100.00;65034.22;5034653;28;20469;-40
2023/10/27 05:25:12;;;;;;;12.53;11.93;;;;;;;-141.22;100.00;65034.22;5034951;28;20863;-39
2023/10/27 05:27:40;;;;;;;11.23;10.83;;;;;;;-141.22;100.00;65034.22;5034643;28;20875;-44
2023/10/27 05:30:09;;;;;;;11.97;11.40;;;;;;;-141.22;100.00;65034.22;5034953;28;20840;-43
2023/10/27 05:32:37;;;;;;;11.40;10.63;;;;;;;-141.22;100.00;65034.22;5034250;28;20432;-42
2023/10/27 05:35:05;;;;;;;13.10;12.20;;;;;;;-141.22;100.00;65034.22;5034791;28;20440;-45
2023/10/27 05:37:33;;;;;;;12.00;11.60;;;;;;;-141.22;100.00;65034.22;5030845;28;20448;-39
2023/10/27 05:40:02;;;;;;;12.70;12.13;;;;;;;-141.22;100.00;65034.22;5034596;28;20487;-39
2023/10/27 05:42:30;;;;;;;13.60;12.90;;;;;;;-141.22;100.00;65034.22;5034249;28;20519;-39
2023/10/27 05:44:58;;;;;;;13.73;13.03;;;;;;;-141.22;100.00;65034.22;5034541;28;20835;-42
2023/10/27 05:47:25;;;;;;;13.40;12.63;;;;;;;-141.22;100.00;65034.22;5033134;28;20488;-39
2023/10/27 05:49:54;;;;;;;13.63;12.87;;;;;;;-141.22;100.00;65034.22;5034685;28;20502;-41
2023/10/27 05:52:22;;;;;;;12.77;12.27;;;;;;;-141.22;100.00;65034.22;5034468;28;20478;-41
2023/10/27 05:54:50;;;;;;;12.07;11.67;;;;;;;-141.22;100.00;65034.22;5034134;28;20460;-41
2023/10/27 05:57:20;;;;;;;11.90;11.40;;;;;;;-141.22;100.00;65034.22;5032871;28;20452;-39
2023/10/27 05:59:48;;;;;;;11.87;11.40;;;;;;;-141.22;100.00;65034.22;5034282;28;20531;-39
2023/10/27 06:02:15;;;;;;;11.77;11.37;;;;;;;-141.22;100.00;65034.22;5033983;28;20482;-41
2023/10/27 06:04:43;;;;;;;11.90;11.40;;;;;;;-141.22;100.00;65034.22;5033633;28;20468;-43
2023/10/27 06:07:15;;;;;;;13.10;12.20;;;;;;;-141.22;100.00;65034.22;5033777;28;20456;-40
2023/10/27 06:09:43;;;;;;;11.40;10.80;;;;;;;-141.22;100.00;65034.22;5034181;28;20434;-43
2023/10/27 06:12:11;;;;;;;11.90;11.20;;;;;;;-141.22;100.00;65034.22;5033894;28;20757;-39
2023/10/27 06:14:44;;;;;;;12.03;11.43;;;;;;;-141.22;100.00;65034.22;5033590;28;20486;-39
2023/10/27 06:17:13;;;;;;;10.50;9.90;;;;;;;-141.22;100.00;65034.22;5033492;28;20509;-39
2023/10/27 06:19:41;;;;;;;11.00;10.40;;;;;;;-141.22;100.00;65034.22;5027734;28;20436;-41
2023/10/27 06:22:09;;;;;;;11.30;10.60;;;;;;;-141.22;100.00;65034.22;5033755;28;20519;-39
2023/10/27 06:24:37;;;;;;;11.43;10.93;;;;;;;-141.22;100.00;65034.22;5033367;28;20475;-39
2023/10/27 06:27:05;;;;;;;11.10;10.60;;;;;;;-141.22;100.00;65034.22;5033134;28;20513;-38
2023/10/27 06:29:33;;;;;;;10.63;10.27;;;;;;;-141.22;100.00;65034.22;5033714;28;20433;-39
2023/10/27 06:32:03;;;;;;;12.47;11.83;;;;;;;-141.22;100.00;65034.22;5033531;28;20436;-38
2023/10/27 06:34:31;;;;;;;12.00;11.30;;;;;;;-141.22;100.00;65034.22;5032992;28;20464;-39
2023/10/27 06:37:00;;;;;;;12.00;11.50;;;;;;;-141.22;100.00;65034.22;5033255;28;20455;-38
2023/10/27 06:39:28;;;;;;;10.90;10.30;;;;;;;-141.22;100.00;65034.22;5033767;28;20475;-38
2023/10/27 06:41:56;;;;;;;10.87;10.30;;;;;;;-141.22;100.00;65034.22;5033500;28;20432;-40
2023/10/27 06:44:24;;;;;;;10.73;10.03;;;;;;;-141.22;100.00;65034.22;5032757;28;20464;-39
2023/10/27 06:46:53;;;;;;;11.27;10.87;;;;;;;-141.22;100.00;65034.22;5032944;28;20440;-39
2023/10/27 06:49:22;;;;;;;10.77;10.27;;;;;;;-141.22;100.00;65034.22;5033419;28;20435;-38
2023/10/27 06:51:50;;;;;;;11.60;11.10;;;;;;;-141.22;100.00;65034.22;5033196;28;20483;-39
2023/10/27 06:54:18;;;;;;;10.40;9.70;;;;;;;-141.22;100.00;65034.22;5032760;28;20456;-41
2023/10/27 06:56:46;;;;;;;10.70;10.10;;;;;;;-141.22;100.00;65034.22;5033088;28;20436;-41
2023/10/27 06:59:13;;;;;;;11.00;10.50;;;;;;;-141.22;100.00;65034.22;5033047;28;20923;-39
2023/10/27 07:01:44;;;;;;;10.33;9.80;;;;;;;-141.22;100.00;65034.22;5033196;28;20437;-39
2023/10/27 07:04:14;;;;;;;10.97;10.30;;;;;;;-141.22;100.00;65034.22;5032366;28;21064;-39
2023/10/27 07:06:44;;;;;;;10.37;9.87;;;;;;;-141.22;100.00;65034.22;5032923;28;20471;-39
2023/10/27 07:09:11;;;;;;;10.80;10.30;;;;;;;-141.22;100.00;65034.22;5032883;28;20478;-39
2023/10/27 07:11:39;;;;;;;10.60;10.20;;;;;;;-141.22;100.00;65034.22;5033120;28;20437;-39
2023/10/27 07:14:07;;;;;;;11.67;10.97;;;;;;;-141.22;100.00;65034.22;5032432;28;20464;-39
2023/10/27 07:16:35;;;;;;;12.00;11.50;;;;;;;-141.22;100.00;65034.22;5032493;28;20946;-39
2023/10/27 07:19:03;;;;;;;11.90;11.33;;;;;;;-141.22;100.00;65034.22;5032789;28;20459;-39
2023/10/27 07:21:33;;;;;;;11.77;11.30;;;;;;;-141.22;100.00;65034.22;5027623;28;20478;-42
2023/10/27 07:24:03;;;;;;;11.03;10.53;;;;;;;-141.22;100.00;65034.22;5032338;28;20483;-39
2023/10/27 07:26:31;;;;;;;11.10;10.70;;;;;;;-141.22;100.00;65034.22;5024556;28;20479;-40
2023/10/27 07:28:58;;;;;;;12.03;11.00;;;;;;;-141.22;100.00;65034.22;5028239;28;20538;-40
2023/10/27 07:31:26;;;;;;;12.10;11.20;;;;;;;-141.22;100.00;65034.22;5032423;28;20855;-41
2023/10/27 07:33:55;;;;;;;11.43;10.73;;;;;;;-141.22;100.00;65034.22;5032169;28;20459;-40
2023/10/27 07:36:23;;;;;;;10.90;10.50;;;;;;;-141.22;100.00;65034.22;5032339;28;20451;-40
2023/10/27 07:38:51;;;;;;;10.93;10.27;;;;;;;-141.22;100.00;65034.22;5031677;28;20456;-39
2023/10/27 07:41:20;;;;;;;10.27;9.77;;;;;;;-141.22;100.00;65034.22;5032313;28;20486;-40
2023/10/27 07:43:48;;;;;;;10.30;9.83;;;;;;;-141.22;100.00;65034.22;5031785;28;20533;-40
2023/10/27 07:46:16;;;;;;;9.77;9.47;;;;;;;-141.22;100.00;65034.22;5032014;28;20503;-39
2023/10/27 07:48:43;;;;;;;10.40;9.80;;;;;;;-141.22;100.00;65034.22;5032203;28;20478;-41
2023/10/27 07:51:11;;;;;;;9.70;9.33;;;;;;;-141.22;100.00;65034.22;5032281;28;20436;-40
2023/10/27 07:53:39;;;;;;;10.43;9.93;;;;;;;-141.22;100.00;65034.22;5027674;28;20460;-40
2023/10/27 07:56:11;;;;;;;10.17;9.60;;;;;;;-141.22;100.00;65034.22;5031777;28;20452;-39
2023/10/27 07:58:40;;;;;;;10.53;10.00;;;;;;;-141.22;100.00;65034.22;5031915;28;20456;-41
2023/10/27 08:01:07;;;;;;;11.13;10.73;;;;;;;-141.22;100.00;65034.22;5032156;28;20791;-39
2023/10/27 08:03:35;;;;;;;12.03;11.53;;;;;;;-141.22;100.00;65034.22;5031565;28;20551;-41
2023/10/27 08:06:07;;;;;;;12.23;11.30;;;;;;;-141.22;100.00;65034.22;5031694;28;20479;-41
2023/10/27 08:08:37;;;;;;;12.30;11.70;;;;;;;-141.22;100.00;65034.22;5031419;28;20458;-38
2023/10/27 08:11:05;;;;;;;11.70;11.30;;;;;;;-141.22;100.00;65034.22;5032438;28;20471;-39
2023/10/27 08:13:33;;;;;;;12.53;12.00;;;;;;;-141.22;100.00;65034.22;5023390;28;20464;-40
2023/10/27 08:16:04;;;;;;;12.33;11.80;;;;;;;-141.22;100.00;65034.22;5031518;28;21002;-43
2023/10/27 08:18:31;;;;;;;11.93;11.43;;;;;;;-141.22;100.00;65034.22;5031719;28;20440;-40
2023/10/27 08:20:59;;;;;;;12.07;11.57;;;;;;;-141.22;100.00;65034.22;5031643;28;20436;-42
2023/10/27 08:23:27;;;;;;;11.67;10.90;;;;;;;-141.22;100.00;65034.22;5031261;28;20484;-40
2023/10/27 08:25:55;;;;;;;12.00;11.47;;;;;;;-141.22;100.00;65034.22;5031572;28;20471;-41
2023/10/27 08:28:22;;;;;;;11.20;10.60;;;;;;;-141.22;100.00;65034.22;5031259;28;20451;-44
2023/10/27 08:30:50;;;;;;;11.90;11.03;;;;;;;-141.22;100.00;65034.22;5031527;28;20432;-43
2023/10/27 08:33:20;;;;;;;11.23;10.80;;;;;;;-141.22;100.00;65034.22;5031220;28;20459;-42
2023/10/27 08:35:47;;;;;;;11.53;11.10;;;;;;;-141.22;100.00;65034.22;5031358;28;20427;-40
2023/10/27 08:38:15;;;;;;;11.43;11.13;;;;;;;-141.22;100.00;65034.22;5031247;28;20801;-40
2023/10/27 08:40:43;;;;;;;12.27;11.37;;;;;;;-141.22;100.00;65034.22;5031602;28;20432;-38
2023/10/27 08:43:12;;;;;;;12.90;12.30;;;;;;;-141.22;100.00;65034.22;5030724;28;20459;-43
2023/10/27 08:45:42;;;;;;;12.33;11.83;;;;;;;-141.22;100.00;65034.22;5025665;28;20483;-40
2023/10/27 08:48:10;;;;;;;12.90;12.10;;;;;;;-141.22;100.00;65034.22;5030716;28;21000;-39
2023/10/27 08:50:42;;;;;;;12.50;12.10;;;;;;;-141.22;100.00;65034.22;5031259;28;20460;-40
2023/10/27 08:53:11;;;;;;;13.07;12.57;;;;;;;-141.22;100.00;65034.22;5030672;28;20583;-39
2023/10/27 08:55:39;;;;;;;13.77;13.00;;;;;;;-141.22;100.00;65034.22;5031392;28;20432;-40
2023/10/27 08:58:07;;;;;;;12.70;12.10;;;;;;;-141.22;100.00;65034.22;5031050;28;20463;-41
2023/10/27 09:00:35;;;;;;;12.20;11.70;;;;;;;-141.22;100.00;65034.22;5031445;28;20944;-42
2023/10/27 09:03:15;;;;;;;12.87;12.17;;;;;;;-141.22;100.00;65034.22;5030749;28;20456;-40
2023/10/27 09:05:44;;;;;;;12.80;12.10;;;;;;;-141.22;100.00;65034.22;5024974;28;21022;-43
2023/10/27 09:08:12;;;;;;;13.10;12.60;;;;;;;-141.22;100.00;65034.22;5030911;28;20456;-42
2023/10/27 09:10:40;;;;;;;13.23;12.40;;;;;;;-141.22;100.00;65034.22;5031086;28;20920;-41
2023/10/27 09:13:10;;;;;;;12.10;11.70;;;;;;;-141.22;100.00;65034.22;5030890;28;20463;-40
2023/10/27 09:15:44;;;;;;;13.03;12.43;;;;;;;-141.22;100.00;65034.22;5027626;28;20440;-41
2023/10/27 09:18:12;;;;;;;13.07;12.57;;;;;;;-141.22;100.00;65034.22;5027446;28;20452;-39
2023/10/27 09:20:49;;;;;;;12.50;12.10;;;;;;;-141.22;100.00;65034.22;5031093;28;20947;-42
2023/10/27 09:23:18;;;;;;;13.80;13.07;;;;;;;-141.22;100.00;65034.22;5030621;28;20985;-41
2023/10/27 09:25:46;;;;;;;12.03;11.63;;;;;;;-141.22;100.00;65034.22;5030814;28;20994;-40
2023/10/27 09:28:14;;;;;;;12.47;11.97;;;;;;;-141.22;100.00;65034.22;5030614;28;20520;-41
2023/10/27 09:30:44;;;;;;;12.93;12.43;;;;;;;-141.22;100.00;65034.22;5030987;28;20546;-39
2023/10/27 09:33:15;;;;;;;13.07;12.47;;;;;;;-141.22;100.00;65034.22;5030664;28;20538;-39
2023/10/27 09:35:44;;;;;;;14.13;13.33;;;;;;;-141.22;100.00;65034.22;5029948;28;20439;-40
2023/10/27 09:38:13;;;;;;;14.57;14.07;;;;;;;-141.22;100.00;65034.22;5030591;28;20982;-43
2023/10/27 09:40:42;;;;;;;14.00;13.40;;;;;;;-141.22;100.00;65034.22;5031078;28;20839;-40
2023/10/27 09:43:19;;;;;;;13.83;13.23;;;;;;;-141.22;100.00;65034.22;5030773;28;20510;-40
2023/10/27 09:45:53;;;;;;;12.97;12.53;;;;;;;-141.22;100.00;65034.22;5028865;28;20953;-41
2023/10/27 09:48:24;;;;;;;12.60;12.10;;;;;;;-141.22;100.00;65034.22;5030374;28;20502;-38
2023/10/27 09:50:58;;;;;;;12.70;12.30;;;;;;;-141.22;100.00;65034.22;5030462;28;20941;-39
2023/10/27 09:53:28;;;;;;;14.13;12.70;;;;;;;-141.22;100.00;65034.22;5030380;28;21015;-40
2023/10/27 09:55:59;;;;;;;11.90;11.50;;;;;;;-141.22;100.00;65034.22;5030724;28;20436;-41
2023/10/27 09:58:29;;;;;;;12.27;11.67;;;;;;;-141.22;100.00;65034.22;5030853;28;20983;-41
2023/10/27 10:00:58;;;;;;;12.23;11.30;;;;;;;-141.22;100.00;65034.22;5030916;28;20428;-41
2023/10/27 10:03:27;;;;;;;11.83;11.33;;;;;;;-141.22;100.00;65034.22;5032734;28;20879;-43
2023/10/27 10:06:11;;;;;;;11.57;11.00;;;;;;;-141.22;100.00;65034.22;5034099;28;20443;-39
2023/10/27 10:08:41;;;;;;;11.37;11.07;;;;;;;-141.22;100.00;65034.22;5031619;28;20487;-43
2023/10/27 10:11:14;;;;;;;11.77;11.33;;;;;;;-141.22;100.00;65034.22;5034166;28;20490;-39
2023/10/27 10:13:42;;;;;;;12.23;11.60;;;;;;;-141.22;100.00;65034.22;5032920;28;20491;-39
2023/10/27 10:16:10;;;;;;;12.20;11.67;;;;;;;-141.22;100.00;65034.22;5033969;28;20478;-40
2023/10/27 10:18:55;;;;;;;11.10;10.80;;;;;;;-141.22;100.00;65034.22;5033948;28;20502;-38
2023/10/27 10:21:35;;;;;;;13.07;12.47;;;;;;;-141.22;100.00;65034.22;5031830;28;20427;-38
2023/10/27 10:24:13;;;;;;;12.77;12.13;;;;;;;-141.22;100.00;65034.22;5033402;28;20462;-39
2023/10/27 10:27:04;;;;;;;12.93;12.30;;;;;;;-141.22;100.00;65034.22;5032839;28;20571;-39
2023/10/27 10:29:33;;;;;;;12.30;11.90;;;;;;;-141.22;100.00;65034.22;5033941;28;20793;-38
2023/10/27 10:32:32;;;;;;;11.10;10.67;;;;;;;-141.22;100.00;65034.22;5029007;28;20525;-39
2023/10/27 10:35:20;;;;;;;11.63;11.07;;;;;;;-141.22;100.00;65034.22;5033872;28;20444;-39
2023/10/27 10:37:49;;;;;;;12.13;11.73;;;;;;;-141.22;100.00;65034.22;5033902;28;20459;-39
2023/10/27 10:40:23;;;;;;;12.20;11.50;;;;;;;-141.22;100.00;65034.22;5033329;28;20436;-40
2023/10/27 10:43:27;;;;;;;11.97;11.50;;;;;;;-141.22;100.00;65034.22;5033111;28;20519;-39
2023/10/27 10:45:56;;;;;;;11.53;11.13;;;;;;;-141.22;100.00;65034.22;5027319;28;20490;-42
2023/10/27 10:48:26;;;;;;;11.10;10.80;;;;;;;-141.22;100.00;65034.22;5033003;28;20480;-42
2023/10/27 10:50:58;;;;;;;11.50;11.00;;;;;;;-141.22;100.00;65034.22;5027207;28;20490;-42
2023/10/27 10:53:26;;;;;;;11.50;11.00;;;;;;;-141.22;100.00;65034.22;5032950;28;20563;-44
2023/10/27 10:56:00;;;;;;;11.90;11.20;;;;;;;-141.22;100.00;65034.22;5033261;28;20879;-39
2023/10/27 10:58:29;;;;;;;12.90;12.40;;;;;;;-141.22;100.00;65034.22;5033317;28;20483;-39
2023/10/27 11:00:59;;;;;;;11.50;11.10;;;;;;;-141.22;100.00;65034.22;5033331;28;20785;-41
2023/10/27 11:03:31;;;;;;;11.90;11.50;;;;;;;-141.22;100.00;65034.22;5030803;28;20987;-40